sensor_id;sensor_type;location;lat;lon;timestamp;temperature;humidity
10536;DHT22;5316;49.538;8.352;2023-05-07T00:01:43;17.00;1.00
10536;DHT22;5316;49.538;8.352;2023-05-07T00:04:19;17.00;1.00
10536;DHT22;5316;49.538;8.352;2023-05-07T00:06:53;17.00;1.00
10536;DHT22;5316;49.538;8.352;2023-05-07T00:09:39;16.90;1.00
10536;DHT22;5316;49.538;8.352;2023-05-07T00:12:07;16.90;1.00
10536;DHT22;5316;49.538;8.352;2023-05-07T00:14:34;16.90;1.00
10536;DHT22;5316;49.538;8.352;2023-05-07T00:17:03;16.90;1.00
10536;DHT22;5316;49.538;8.352;2023-05-07T00:19:31;16.80;1.00
10536;DHT22;5316;49.538;8.352;2023-05-07T00:22:16;16.90;1.00
10536;DHT22;5316;49.538;8.352;2023-05-07T00:24:58;16.70;1.00
10536;DHT22;5316;49.538;8.352;2023-05-07T00:27:25;16.70;1.00
10536;DHT22;5316;49.538;8.352;2023-05-07T00:29:55;16.60;1.00
10536;DHT22;5316;49.538;8.352;2023-05-07T00:32:41;16.60;1.00
10536;DHT22;5316;49.538;8.352;2023-05-07T00:35:13;16.50;1.00
10536;DHT22;5316;49.538;8.352;2023-05-07T00:38:07;16.50;1.00
10536;DHT22;5316;49.538;8.352;2023-05-07T00:40:37;16.50;1.00
10536;DHT22;5316;49.538;8.352;2023-05-07T00:43:09;16.40;1.00
10536;DHT22;5316;49.538;8.352;2023-05-07T00:45:38;16.40;1.00
10536;DHT22;5316;49.538;8.352;2023-05-07T00:48:13;16.40;1.00
10536;DHT22;5316;49.538;8.352;2023-05-07T00:50:50;16.40;1.00
10536;DHT22;5316;49.538;8.352;2023-05-07T00:53:22;16.40;1.00
10536;DHT22;5316;49.538;8.352;2023-05-07T00:55:57;16.30;1.00
10536;DHT22;5316;49.538;8.352;2023-05-07T00:58:26;16.30;1.00
10536;DHT22;5316;49.538;8.352;2023-05-07T01:01:03;16.30;1.00
10536;DHT22;5316;49.538;8.352;2023-05-07T01:03:34;16.30;1.00
10536;DHT22;5316;49.538;8.352;2023-05-07T01:06:06;16.20;1.00
10536;DHT22;5316;49.538;8.352;2023-05-07T01:08:36;16.10;1.00
10536;DHT22;5316;49.538;8.352;2023-05-07T01:11:08;16.10;1.00
10536;DHT22;5316;49.538;8.352;2023-05-07T01:13:38;16.10;1.80
10536;DHT22;5316;49.538;8.352;2023-05-07T01:16:06;16.10;3.00
10536;DHT22;5316;49.538;8.352;2023-05-07T01:18:33;16.00;4.90
10536;DHT22;5316;49.538;8.352;2023-05-07T01:21:01;16.00;8.50
10536;DHT22;5316;49.538;8.352;2023-05-07T01:23:34;16.00;10.90
10536;DHT22;5316;49.538;8.352;2023-05-07T01:26:05;16.00;14.50
10536;DHT22;5316;49.538;8.352;2023-05-07T01:28:34;15.90;21.30
10536;DHT22;5316;49.538;8.352;2023-05-07T01:31:04;15.90;23.20
10536;DHT22;5316;49.538;8.352;2023-05-07T01:33:34;15.80;27.80
10536;DHT22;5316;49.538;8.352;2023-05-07T01:36:04;15.80;31.00
10536;DHT22;5316;49.538;8.352;2023-05-07T01:38:37;15.80;30.00
10536;DHT22;5316;49.538;8.352;2023-05-07T01:41:05;15.80;33.10
10536;DHT22;5316;49.538;8.352;2023-05-07T01:43:33;15.80;33.30
10536;DHT22;5316;49.538;8.352;2023-05-07T01:46:01;15.80;37.50
10536;DHT22;5316;49.538;8.352;2023-05-07T01:48:29;15.70;48.30
10536;DHT22;5316;49.538;8.352;2023-05-07T01:50:56;15.60;58.00
10536;DHT22;5316;49.538;8.352;2023-05-07T01:53:23;15.50;70.20
10536;DHT22;5316;49.538;8.352;2023-05-07T01:55:54;15.40;82.20
10536;DHT22;5316;49.538;8.352;2023-05-07T01:58:23;15.40;91.00
10536;DHT22;5316;49.538;8.352;2023-05-07T02:00:50;15.40;94.00
10536;DHT22;5316;49.538;8.352;2023-05-07T02:03:17;15.30;95.80
10536;DHT22;5316;49.538;8.352;2023-05-07T02:05:43;15.30;99.40
10536;DHT22;5316;49.538;8.352;2023-05-07T02:08:13;15.30;99.90
10536;DHT22;5316;49.538;8.352;2023-05-07T02:10:40;15.20;99.90
10536;DHT22;5316;49.538;8.352;2023-05-07T02:13:08;15.20;99.90
10536;DHT22;5316;49.538;8.352;2023-05-07T02:15:35;15.20;99.90
10536;DHT22;5316;49.538;8.352;2023-05-07T02:18:04;15.10;99.90
10536;DHT22;5316;49.538;8.352;2023-05-07T02:20:35;15.10;99.90
10536;DHT22;5316;49.538;8.352;2023-05-07T02:23:02;15.00;99.90
10536;DHT22;5316;49.538;8.352;2023-05-07T02:25:28;15.00;99.90
10536;DHT22;5316;49.538;8.352;2023-05-07T02:27:55;15.00;99.90
10536;DHT22;5316;49.538;8.352;2023-05-07T02:30:25;15.00;99.90
10536;DHT22;5316;49.538;8.352;2023-05-07T02:32:53;14.90;99.90
10536;DHT22;5316;49.538;8.352;2023-05-07T02:35:20;14.90;99.90
10536;DHT22;5316;49.538;8.352;2023-05-07T02:37:47;14.90;99.90
10536;DHT22;5316;49.538;8.352;2023-05-07T02:40:14;14.90;99.90
10536;DHT22;5316;49.538;8.352;2023-05-07T02:42:40;14.80;99.90
10536;DHT22;5316;49.538;8.352;2023-05-07T02:45:10;14.80;99.90
10536;DHT22;5316;49.538;8.352;2023-05-07T02:47:39;14.70;99.90
10536;DHT22;5316;49.538;8.352;2023-05-07T02:50:09;14.70;99.90
10536;DHT22;5316;49.538;8.352;2023-05-07T02:52:37;14.60;99.90
10536;DHT22;5316;49.538;8.352;2023-05-07T02:55:05;14.60;99.90
10536;DHT22;5316;49.538;8.352;2023-05-07T02:57:32;14.60;99.90
10536;DHT22;5316;49.538;8.352;2023-05-07T02:59:59;14.70;99.90
10536;DHT22;5316;49.538;8.352;2023-05-07T03:02:25;14.60;99.90
10536;DHT22;5316;49.538;8.352;2023-05-07T03:04:53;14.60;99.90
10536;DHT22;5316;49.538;8.352;2023-05-07T03:07:20;14.50;99.90
10536;DHT22;5316;49.538;8.352;2023-05-07T03:09:47;14.50;99.90
10536;DHT22;5316;49.538;8.352;2023-05-07T03:12:14;14.40;99.90
10536;DHT22;5316;49.538;8.352;2023-05-07T03:14:41;14.50;99.90
10536;DHT22;5316;49.538;8.352;2023-05-07T03:17:07;14.50;99.90
10536;DHT22;5316;49.538;8.352;2023-05-07T03:19:34;14.50;99.90
10536;DHT22;5316;49.538;8.352;2023-05-07T03:22:02;14.50;99.90
10536;DHT22;5316;49.538;8.352;2023-05-07T03:24:29;14.50;99.90
10536;DHT22;5316;49.538;8.352;2023-05-07T03:26:56;14.50;99.90
10536;DHT22;5316;49.538;8.352;2023-05-07T03:29:23;14.50;99.90
10536;DHT22;5316;49.538;8.352;2023-05-07T03:31:53;14.40;99.90
10536;DHT22;5316;49.538;8.352;2023-05-07T03:34:19;14.40;99.90
10536;DHT22;5316;49.538;8.352;2023-05-07T03:36:47;14.40;99.90
10536;DHT22;5316;49.538;8.352;2023-05-07T03:39:15;14.40;99.90
10536;DHT22;5316;49.538;8.352;2023-05-07T03:41:42;14.40;99.90
10536;DHT22;5316;49.538;8.352;2023-05-07T03:44:09;14.40;99.90
10536;DHT22;5316;49.538;8.352;2023-05-07T03:46:35;14.40;99.90
10536;DHT22;5316;49.538;8.352;2023-05-07T03:49:02;14.40;99.90
10536;DHT22;5316;49.538;8.352;2023-05-07T03:51:29;14.30;99.90
10536;DHT22;5316;49.538;8.352;2023-05-07T03:53:56;14.20;99.90
10536;DHT22;5316;49.538;8.352;2023-05-07T03:56:24;14.20;99.90
10536;DHT22;5316;49.538;8.352;2023-05-07T03:58:53;14.20;99.90
10536;DHT22;5316;49.538;8.352;2023-05-07T04:01:19;14.20;99.90
10536;DHT22;5316;49.538;8.352;2023-05-07T04:03:46;14.20;99.90
10536;DHT22;5316;49.538;8.352;2023-05-07T04:06:13;14.20;99.90
10536;DHT22;5316;49.538;8.352;2023-05-07T04:08:40;14.10;99.90
10536;DHT22;5316;49.538;8.352;2023-05-07T04:11:06;14.20;99.90
10536;DHT22;5316;49.538;8.352;2023-05-07T04:13:35;14.10;99.90
10536;DHT22;5316;49.538;8.352;2023-05-07T04:16:02;14.10;99.90
10536;DHT22;5316;49.538;8.352;2023-05-07T04:18:29;14.20;99.90
10536;DHT22;5316;49.538;8.352;2023-05-07T04:20:56;14.20;99.90
10536;DHT22;5316;49.538;8.352;2023-05-07T04:23:23;14.20;99.90
10536;DHT22;5316;49.538;8.352;2023-05-07T04:25:50;14.10;99.90
10536;DHT22;5316;49.538;8.352;2023-05-07T04:28:16;14.20;99.90
10536;DHT22;5316;49.538;8.352;2023-05-07T04:30:44;14.10;99.90
10536;DHT22;5316;49.538;8.352;2023-05-07T04:33:11;14.10;99.90
10536;DHT22;5316;49.538;8.352;2023-05-07T04:35:38;14.00;99.90
10536;DHT22;5316;49.538;8.352;2023-05-07T04:38:05;14.10;99.90
10536;DHT22;5316;49.538;8.352;2023-05-07T04:40:32;14.10;99.90
10536;DHT22;5316;49.538;8.352;2023-05-07T04:42:58;14.10;99.90
10536;DHT22;5316;49.538;8.352;2023-05-07T04:45:25;14.00;99.90
10536;DHT22;5316;49.538;8.352;2023-05-07T04:47:54;14.10;99.90
10536;DHT22;5316;49.538;8.352;2023-05-07T04:50:20;14.10;99.90
10536;DHT22;5316;49.538;8.352;2023-05-07T04:52:49;14.20;99.90
10536;DHT22;5316;49.538;8.352;2023-05-07T04:55:16;14.10;99.90
10536;DHT22;5316;49.538;8.352;2023-05-07T04:57:43;14.20;99.90
10536;DHT22;5316;49.538;8.352;2023-05-07T05:00:11;14.20;99.90
10536;DHT22;5316;49.538;8.352;2023-05-07T05:02:39;14.30;99.90
10536;DHT22;5316;49.538;8.352;2023-05-07T05:05:08;14.30;99.90
10536;DHT22;5316;49.538;8.352;2023-05-07T05:07:35;14.30;99.90
10536;DHT22;5316;49.538;8.352;2023-05-07T05:10:02;14.40;99.90
10536;DHT22;5316;49.538;8.352;2023-05-07T05:12:29;14.40;99.90
10536;DHT22;5316;49.538;8.352;2023-05-07T05:14:55;14.50;99.90
10536;DHT22;5316;49.538;8.352;2023-05-07T05:17:22;14.60;99.90
10536;DHT22;5316;49.538;8.352;2023-05-07T05:19:49;14.60;99.90
10536;DHT22;5316;49.538;8.352;2023-05-07T05:22:17;14.70;99.90
10536;DHT22;5316;49.538;8.352;2023-05-07T05:24:44;14.80;99.90
10536;DHT22;5316;49.538;8.352;2023-05-07T05:27:11;14.80;99.90
10536;DHT22;5316;49.538;8.352;2023-05-07T05:29:37;14.90;99.90
10536;DHT22;5316;49.538;8.352;2023-05-07T05:32:04;15.00;99.90
10536;DHT22;5316;49.538;8.352;2023-05-07T05:34:31;15.00;99.90
10536;DHT22;5316;49.538;8.352;2023-05-07T05:36:59;15.00;99.90
10536;DHT22;5316;49.538;8.352;2023-05-07T05:39:27;15.10;99.90
10536;DHT22;5316;49.538;8.352;2023-05-07T05:41:54;15.10;99.90
10536;DHT22;5316;49.538;8.352;2023-05-07T05:44:20;15.20;99.90
10536;DHT22;5316;49.538;8.352;2023-05-07T05:46:47;15.20;99.90
10536;DHT22;5316;49.538;8.352;2023-05-07T05:49:15;15.30;99.90
10536;DHT22;5316;49.538;8.352;2023-05-07T05:51:41;15.40;99.90
10536;DHT22;5316;49.538;8.352;2023-05-07T05:54:08;15.40;99.90
10536;DHT22;5316;49.538;8.352;2023-05-07T05:56:36;15.40;99.90
10536;DHT22;5316;49.538;8.352;2023-05-07T05:59:03;15.50;99.90
10536;DHT22;5316;49.538;8.352;2023-05-07T06:01:30;15.50;99.90
10536;DHT22;5316;49.538;8.352;2023-05-07T06:03:57;15.60;99.90
10536;DHT22;5316;49.538;8.352;2023-05-07T06:06:24;15.60;99.90
10536;DHT22;5316;49.538;8.352;2023-05-07T06:08:51;15.60;99.90
10536;DHT22;5316;49.538;8.352;2023-05-07T06:11:17;15.70;99.90
10536;DHT22;5316;49.538;8.352;2023-05-07T06:13:46;15.90;99.90
10536;DHT22;5316;49.538;8.352;2023-05-07T06:16:12;16.00;99.90
10536;DHT22;5316;49.538;8.352;2023-05-07T06:18:39;16.00;99.90
10536;DHT22;5316;49.538;8.352;2023-05-07T06:21:06;16.20;99.90
10536;DHT22;5316;49.538;8.352;2023-05-07T06:23:33;16.30;99.90
10536;DHT22;5316;49.538;8.352;2023-05-07T06:26:00;16.20;99.90
10536;DHT22;5316;49.538;8.352;2023-05-07T06:28:27;16.30;99.90
10536;DHT22;5316;49.538;8.352;2023-05-07T06:31:11;16.30;99.90
10536;DHT22;5316;49.538;8.352;2023-05-07T06:33:37;16.30;99.90
10536;DHT22;5316;49.538;8.352;2023-05-07T06:36:05;16.40;99.90
10536;DHT22;5316;49.538;8.352;2023-05-07T06:38:32;16.40;99.90
10536;DHT22;5316;49.538;8.352;2023-05-07T06:40:59;16.60;99.90
10536;DHT22;5316;49.538;8.352;2023-05-07T06:43:25;16.60;99.90
10536;DHT22;5316;49.538;8.352;2023-05-07T06:45:52;16.80;76.10
10536;DHT22;5316;49.538;8.352;2023-05-07T06:48:20;16.90;75.60
10536;DHT22;5316;49.538;8.352;2023-05-07T06:50:47;17.10;60.70
10536;DHT22;5316;49.538;8.352;2023-05-07T06:53:14;17.20;27.70
10536;DHT22;5316;49.538;8.352;2023-05-07T06:55:41;17.30;25.40
10536;DHT22;5316;49.538;8.352;2023-05-07T06:58:08;17.40;21.50
10536;DHT22;5316;49.538;8.352;2023-05-07T07:00:34;17.50;1.90
10536;DHT22;5316;49.538;8.352;2023-05-07T07:03:01;17.50;1.00
10536;DHT22;5316;49.538;8.352;2023-05-07T07:05:29;17.60;1.00
10536;DHT22;5316;49.538;8.352;2023-05-07T07:07:56;17.70;1.00
10536;DHT22;5316;49.538;8.352;2023-05-07T07:10:23;17.80;1.00
10536;DHT22;5316;49.538;8.352;2023-05-07T07:12:50;17.90;1.00
10536;DHT22;5316;49.538;8.352;2023-05-07T07:15:19;17.90;1.00
10536;DHT22;5316;49.538;8.352;2023-05-07T07:17:46;17.90;1.00
10536;DHT22;5316;49.538;8.352;2023-05-07T07:20:13;17.90;1.00
10536;DHT22;5316;49.538;8.352;2023-05-07T07:22:41;18.00;1.00
10536;DHT22;5316;49.538;8.352;2023-05-07T07:25:08;18.00;1.00
10536;DHT22;5316;49.538;8.352;2023-05-07T07:27:36;18.10;1.00
10536;DHT22;5316;49.538;8.352;2023-05-07T07:30:07;18.00;1.00
10536;DHT22;5316;49.538;8.352;2023-05-07T07:32:34;18.00;1.00
10536;DHT22;5316;49.538;8.352;2023-05-07T07:35:01;18.10;1.00
10536;DHT22;5316;49.538;8.352;2023-05-07T07:37:28;18.10;1.00
10536;DHT22;5316;49.538;8.352;2023-05-07T07:39:56;18.10;1.00
10536;DHT22;5316;49.538;8.352;2023-05-07T07:42:23;18.10;1.00
10536;DHT22;5316;49.538;8.352;2023-05-07T07:44:50;18.00;1.00
10536;DHT22;5316;49.538;8.352;2023-05-07T07:47:17;18.10;1.00
10536;DHT22;5316;49.538;8.352;2023-05-07T07:49:43;18.10;1.00
10536;DHT22;5316;49.538;8.352;2023-05-07T07:52:10;18.20;1.00
10536;DHT22;5316;49.538;8.352;2023-05-07T07:54:37;18.20;1.00
10536;DHT22;5316;49.538;8.352;2023-05-07T07:57:05;18.40;1.00
10536;DHT22;5316;49.538;8.352;2023-05-07T07:59:32;18.40;1.00
10536;DHT22;5316;49.538;8.352;2023-05-07T08:01:58;18.50;1.00
10536;DHT22;5316;49.538;8.352;2023-05-07T08:04:25;18.60;1.00
10536;DHT22;5316;49.538;8.352;2023-05-07T08:06:52;18.60;1.00
10536;DHT22;5316;49.538;8.352;2023-05-07T08:09:19;18.70;1.00
10536;DHT22;5316;49.538;8.352;2023-05-07T08:11:46;18.70;1.00
10536;DHT22;5316;49.538;8.352;2023-05-07T08:14:15;18.60;1.00
10536;DHT22;5316;49.538;8.352;2023-05-07T08:16:42;18.70;1.00
10536;DHT22;5316;49.538;8.352;2023-05-07T08:19:08;18.90;1.00
10536;DHT22;5316;49.538;8.352;2023-05-07T08:21:39;18.90;1.00
10536;DHT22;5316;49.538;8.352;2023-05-07T08:24:06;19.00;1.00
10536;DHT22;5316;49.538;8.352;2023-05-07T08:26:32;19.10;1.00
10536;DHT22;5316;49.538;8.352;2023-05-07T08:29:01;19.10;1.00
10536;DHT22;5316;49.538;8.352;2023-05-07T08:31:29;19.10;1.00
10536;DHT22;5316;49.538;8.352;2023-05-07T08:33:56;19.20;1.00
10536;DHT22;5316;49.538;8.352;2023-05-07T08:36:23;19.30;1.00
10536;DHT22;5316;49.538;8.352;2023-05-07T08:38:51;19.30;1.00
10536;DHT22;5316;49.538;8.352;2023-05-07T08:41:18;19.30;1.00
10536;DHT22;5316;49.538;8.352;2023-05-07T08:43:47;19.20;1.00
10536;DHT22;5316;49.538;8.352;2023-05-07T08:46:17;19.30;1.00
10536;DHT22;5316;49.538;8.352;2023-05-07T08:48:49;19.30;1.00
10536;DHT22;5316;49.538;8.352;2023-05-07T08:51:18;19.30;1.00
10536;DHT22;5316;49.538;8.352;2023-05-07T08:53:46;19.40;1.00
10536;DHT22;5316;49.538;8.352;2023-05-07T08:56:14;19.50;1.00
10536;DHT22;5316;49.538;8.352;2023-05-07T08:58:42;19.70;1.00
10536;DHT22;5316;49.538;8.352;2023-05-07T09:01:12;19.80;1.00
10536;DHT22;5316;49.538;8.352;2023-05-07T09:03:39;20.00;1.00
10536;DHT22;5316;49.538;8.352;2023-05-07T09:06:08;20.10;1.00
10536;DHT22;5316;49.538;8.352;2023-05-07T09:08:35;20.30;1.00
10536;DHT22;5316;49.538;8.352;2023-05-07T09:11:03;20.40;1.00
10536;DHT22;5316;49.538;8.352;2023-05-07T09:13:30;20.60;1.00
10536;DHT22;5316;49.538;8.352;2023-05-07T09:15:57;20.60;1.00
10536;DHT22;5316;49.538;8.352;2023-05-07T09:18:24;20.80;1.00
10536;DHT22;5316;49.538;8.352;2023-05-07T09:20:51;20.90;1.00
10536;DHT22;5316;49.538;8.352;2023-05-07T09:23:20;21.00;1.00
10536;DHT22;5316;49.538;8.352;2023-05-07T09:25:47;21.10;1.00
10536;DHT22;5316;49.538;8.352;2023-05-07T09:28:14;21.30;1.00
10536;DHT22;5316;49.538;8.352;2023-05-07T09:30:41;21.50;1.00
10536;DHT22;5316;49.538;8.352;2023-05-07T09:33:07;21.60;1.00
10536;DHT22;5316;49.538;8.352;2023-05-07T09:35:34;21.70;1.00
10536;DHT22;5316;49.538;8.352;2023-05-07T09:38:01;21.90;1.00
10536;DHT22;5316;49.538;8.352;2023-05-07T09:40:30;21.90;1.00
10536;DHT22;5316;49.538;8.352;2023-05-07T09:43:09;22.10;1.00
10536;DHT22;5316;49.538;8.352;2023-05-07T09:45:37;22.20;1.00
10536;DHT22;5316;49.538;8.352;2023-05-07T09:48:05;22.30;1.00
10536;DHT22;5316;49.538;8.352;2023-05-07T09:50:36;22.40;1.00
10536;DHT22;5316;49.538;8.352;2023-05-07T09:53:04;22.60;1.00
10536;DHT22;5316;49.538;8.352;2023-05-07T09:55:32;22.70;1.00
10536;DHT22;5316;49.538;8.352;2023-05-07T09:57:59;22.70;1.00
10536;DHT22;5316;49.538;8.352;2023-05-07T10:00:28;22.80;1.00
10536;DHT22;5316;49.538;8.352;2023-05-07T10:02:56;22.90;1.00
10536;DHT22;5316;49.538;8.352;2023-05-07T10:05:24;23.10;1.00
10536;DHT22;5316;49.538;8.352;2023-05-07T10:07:52;23.20;1.00
10536;DHT22;5316;49.538;8.352;2023-05-07T10:10:20;23.30;1.00
10536;DHT22;5316;49.538;8.352;2023-05-07T10:12:49;23.40;1.00
10536;DHT22;5316;49.538;8.352;2023-05-07T10:15:17;23.40;1.00
10536;DHT22;5316;49.538;8.352;2023-05-07T10:17:44;23.40;1.00
10536;DHT22;5316;49.538;8.352;2023-05-07T10:20:11;23.40;1.00
10536;DHT22;5316;49.538;8.352;2023-05-07T10:22:41;23.40;1.00
10536;DHT22;5316;49.538;8.352;2023-05-07T10:25:13;23.40;1.00
10536;DHT22;5316;49.538;8.352;2023-05-07T10:27:41;23.40;1.00
10536;DHT22;5316;49.538;8.352;2023-05-07T10:30:16;23.40;1.00
10536;DHT22;5316;49.538;8.352;2023-05-07T10:32:49;23.40;1.00
10536;DHT22;5316;49.538;8.352;2023-05-07T10:35:19;23.40;1.00
10536;DHT22;5316;49.538;8.352;2023-05-07T10:37:46;23.40;1.00
10536;DHT22;5316;49.538;8.352;2023-05-07T10:40:14;23.30;1.00
10536;DHT22;5316;49.538;8.352;2023-05-07T10:42:53;23.40;1.00
10536;DHT22;5316;49.538;8.352;2023-05-07T10:45:23;23.40;1.00
10536;DHT22;5316;49.538;8.352;2023-05-07T10:48:10;23.40;1.00
10536;DHT22;5316;49.538;8.352;2023-05-07T10:50:37;23.40;1.00
10536;DHT22;5316;49.538;8.352;2023-05-07T10:53:24;23.40;1.00
10536;DHT22;5316;49.538;8.352;2023-05-07T10:59:29;23.40;1.00
10536;DHT22;5316;49.538;8.352;2023-05-07T11:01:59;23.50;1.00
10536;DHT22;5316;49.538;8.352;2023-05-07T11:04:28;23.40;1.00
10536;DHT22;5316;49.538;8.352;2023-05-07T11:07:30;23.40;1.00
10536;DHT22;5316;49.538;8.352;2023-05-07T11:10:06;23.40;1.00
10536;DHT22;5316;49.538;8.352;2023-05-07T11:13:03;23.60;1.00
10536;DHT22;5316;49.538;8.352;2023-05-07T11:15:36;23.70;1.00
10536;DHT22;5316;49.538;8.352;2023-05-07T11:18:04;23.90;1.00
10536;DHT22;5316;49.538;8.352;2023-05-07T11:20:54;24.00;1.00
10536;DHT22;5316;49.538;8.352;2023-05-07T11:26:46;24.30;1.00
10536;DHT22;5316;49.538;8.352;2023-05-07T11:29:14;24.20;1.00
10536;DHT22;5316;49.538;8.352;2023-05-07T11:31:41;24.10;1.00
10536;DHT22;5316;49.538;8.352;2023-05-07T11:34:09;24.10;1.00
10536;DHT22;5316;49.538;8.352;2023-05-07T11:36:42;24.10;1.00
10536;DHT22;5316;49.538;8.352;2023-05-07T11:39:27;24.10;1.00
10536;DHT22;5316;49.538;8.352;2023-05-07T11:41:54;24.20;1.00
10536;DHT22;5316;49.538;8.352;2023-05-07T11:44:21;24.20;1.00
10536;DHT22;5316;49.538;8.352;2023-05-07T11:46:48;24.30;1.00
10536;DHT22;5316;49.538;8.352;2023-05-07T11:49:17;24.30;1.00
10536;DHT22;5316;49.538;8.352;2023-05-07T11:51:44;24.40;1.00
10536;DHT22;5316;49.538;8.352;2023-05-07T11:54:15;24.50;1.00
10536;DHT22;5316;49.538;8.352;2023-05-07T11:56:43;24.50;1.00
10536;DHT22;5316;49.538;8.352;2023-05-07T11:59:10;24.50;1.00
10536;DHT22;5316;49.538;8.352;2023-05-07T12:01:37;24.60;1.00
10536;DHT22;5316;49.538;8.352;2023-05-07T12:04:04;24.70;1.00
10536;DHT22;5316;49.538;8.352;2023-05-07T12:06:36;24.80;1.00
10536;DHT22;5316;49.538;8.352;2023-05-07T12:09:04;24.80;1.00
10536;DHT22;5316;49.538;8.352;2023-05-07T12:11:32;24.90;1.00
10536;DHT22;5316;49.538;8.352;2023-05-07T12:13:59;25.00;1.00
10536;DHT22;5316;49.538;8.352;2023-05-07T12:16:26;25.10;1.00
10536;DHT22;5316;49.538;8.352;2023-05-07T12:18:53;25.30;1.00
10536;DHT22;5316;49.538;8.352;2023-05-07T12:21:20;25.40;1.00
10536;DHT22;5316;49.538;8.352;2023-05-07T12:23:49;25.60;1.00
10536;DHT22;5316;49.538;8.352;2023-05-07T12:26:16;25.70;1.00
10536;DHT22;5316;49.538;8.352;2023-05-07T12:28:43;25.80;1.00
10536;DHT22;5316;49.538;8.352;2023-05-07T12:31:10;25.90;1.00
10536;DHT22;5316;49.538;8.352;2023-05-07T12:33:37;26.00;1.00
10536;DHT22;5316;49.538;8.352;2023-05-07T12:36:06;26.00;1.00
10536;DHT22;5316;49.538;8.352;2023-05-07T12:38:38;26.10;1.00
10536;DHT22;5316;49.538;8.352;2023-05-07T12:41:08;26.00;1.00
10536;DHT22;5316;49.538;8.352;2023-05-07T12:43:36;25.90;1.00
10536;DHT22;5316;49.538;8.352;2023-05-07T12:46:05;25.80;1.00
10536;DHT22;5316;49.538;8.352;2023-05-07T12:48:32;25.80;1.00
10536;DHT22;5316;49.538;8.352;2023-05-07T12:51:00;25.70;1.00
10536;DHT22;5316;49.538;8.352;2023-05-07T12:53:28;25.60;1.00
10536;DHT22;5316;49.538;8.352;2023-05-07T12:55:57;25.50;1.00
10536;DHT22;5316;49.538;8.352;2023-05-07T12:58:27;25.40;1.00
10536;DHT22;5316;49.538;8.352;2023-05-07T13:00:55;25.30;1.00
10536;DHT22;5316;49.538;8.352;2023-05-07T13:03:27;25.20;1.00
10536;DHT22;5316;49.538;8.352;2023-05-07T13:05:57;25.20;1.00
10536;DHT22;5316;49.538;8.352;2023-05-07T13:08:30;25.00;1.00
10536;DHT22;5316;49.538;8.352;2023-05-07T13:10:57;24.80;1.00
10536;DHT22;5316;49.538;8.352;2023-05-07T13:13:26;24.70;1.00
10536;DHT22;5316;49.538;8.352;2023-05-07T13:15:53;24.50;1.00
10536;DHT22;5316;49.538;8.352;2023-05-07T13:18:19;24.30;1.00
10536;DHT22;5316;49.538;8.352;2023-05-07T13:20:46;24.30;1.00
10536;DHT22;5316;49.538;8.352;2023-05-07T13:23:13;24.20;1.00
10536;DHT22;5316;49.538;8.352;2023-05-07T13:25:40;24.10;1.00
10536;DHT22;5316;49.538;8.352;2023-05-07T13:28:06;24.00;1.00
10536;DHT22;5316;49.538;8.352;2023-05-07T13:30:35;23.80;1.00
10536;DHT22;5316;49.538;8.352;2023-05-07T13:33:02;23.60;1.00
10536;DHT22;5316;49.538;8.352;2023-05-07T13:35:28;23.50;1.00
10536;DHT22;5316;49.538;8.352;2023-05-07T13:37:55;23.50;1.00
10536;DHT22;5316;49.538;8.352;2023-05-07T13:40:22;23.40;1.00
10536;DHT22;5316;49.538;8.352;2023-05-07T13:42:49;23.40;1.00
10536;DHT22;5316;49.538;8.352;2023-05-07T13:45:16;23.40;1.00
10536;DHT22;5316;49.538;8.352;2023-05-07T13:47:46;23.30;1.00
10536;DHT22;5316;49.538;8.352;2023-05-07T13:50:14;23.20;1.00
10536;DHT22;5316;49.538;8.352;2023-05-07T13:52:42;23.20;1.00
10536;DHT22;5316;49.538;8.352;2023-05-07T13:55:11;23.10;1.00
10536;DHT22;5316;49.538;8.352;2023-05-07T13:57:38;22.80;1.00
10536;DHT22;5316;49.538;8.352;2023-05-07T14:00:06;22.70;1.00
10536;DHT22;5316;49.538;8.352;2023-05-07T14:02:33;22.60;1.00
10536;DHT22;5316;49.538;8.352;2023-05-07T14:05:01;22.40;1.00
10536;DHT22;5316;49.538;8.352;2023-05-07T14:07:28;22.30;1.00
10536;DHT22;5316;49.538;8.352;2023-05-07T14:09:55;22.30;1.00
10536;DHT22;5316;49.538;8.352;2023-05-07T14:12:22;22.10;1.00
10536;DHT22;5316;49.538;8.352;2023-05-07T14:14:49;22.00;1.00
10536;DHT22;5316;49.538;8.352;2023-05-07T14:17:16;22.00;1.00
10536;DHT22;5316;49.538;8.352;2023-05-07T14:19:43;21.90;1.00
10536;DHT22;5316;49.538;8.352;2023-05-07T14:22:13;21.90;1.00
10536;DHT22;5316;49.538;8.352;2023-05-07T14:24:40;21.80;1.00
10536;DHT22;5316;49.538;8.352;2023-05-07T14:27:06;21.70;1.00
10536;DHT22;5316;49.538;8.352;2023-05-07T14:29:33;21.70;1.00
10536;DHT22;5316;49.538;8.352;2023-05-07T14:32:01;21.60;1.00
10536;DHT22;5316;49.538;8.352;2023-05-07T14:34:28;21.50;1.00
10536;DHT22;5316;49.538;8.352;2023-05-07T14:36:55;21.40;1.00
10536;DHT22;5316;49.538;8.352;2023-05-07T14:39:23;21.40;1.00
10536;DHT22;5316;49.538;8.352;2023-05-07T14:41:50;21.30;1.00
10536;DHT22;5316;49.538;8.352;2023-05-07T14:44:19;21.20;1.00
10536;DHT22;5316;49.538;8.352;2023-05-07T14:46:46;21.20;1.00
10536;DHT22;5316;49.538;8.352;2023-05-07T14:49:13;21.10;1.00
10536;DHT22;5316;49.538;8.352;2023-05-07T14:51:42;21.00;1.00
10536;DHT22;5316;49.538;8.352;2023-05-07T14:54:09;20.90;1.00
10536;DHT22;5316;49.538;8.352;2023-05-07T14:56:38;20.80;1.00
10536;DHT22;5316;49.538;8.352;2023-05-07T14:59:05;20.70;1.00
10536;DHT22;5316;49.538;8.352;2023-05-07T15:01:32;20.70;1.00
10536;DHT22;5316;49.538;8.352;2023-05-07T15:03:59;20.60;1.00
10536;DHT22;5316;49.538;8.352;2023-05-07T15:06:26;20.50;1.00
10536;DHT22;5316;49.538;8.352;2023-05-07T15:08:53;20.50;18.10
10536;DHT22;5316;49.538;8.352;2023-05-07T15:11:19;20.40;34.10
10536;DHT22;5316;49.538;8.352;2023-05-07T15:13:48;20.40;23.40
10536;DHT22;5316;49.538;8.352;2023-05-07T15:16:15;20.30;12.10
10536;DHT22;5316;49.538;8.352;2023-05-07T15:18:42;20.20;23.30
10536;DHT22;5316;49.538;8.352;2023-05-07T15:21:09;20.20;31.40
10536;DHT22;5316;49.538;8.352;2023-05-07T15:23:36;20.10;68.60
10536;DHT22;5316;49.538;8.352;2023-05-07T15:26:04;20.10;96.20
10536;DHT22;5316;49.538;8.352;2023-05-07T15:28:30;20.00;99.90
10536;DHT22;5316;49.538;8.352;2023-05-07T15:30:59;20.00;99.90
10536;DHT22;5316;49.538;8.352;2023-05-07T15:33:27;19.90;99.90
10536;DHT22;5316;49.538;8.352;2023-05-07T15:35:54;19.90;99.90
10536;DHT22;5316;49.538;8.352;2023-05-07T15:38:24;19.90;99.90
10536;DHT22;5316;49.538;8.352;2023-05-07T15:40:51;19.80;99.90
10536;DHT22;5316;49.538;8.352;2023-05-07T15:43:17;19.70;99.90
10536;DHT22;5316;49.538;8.352;2023-05-07T15:45:44;19.70;99.90
10536;DHT22;5316;49.538;8.352;2023-05-07T15:48:12;19.70;99.90
10536;DHT22;5316;49.538;8.352;2023-05-07T15:50:39;19.60;99.90
10536;DHT22;5316;49.538;8.352;2023-05-07T15:53:06;19.50;99.90
10536;DHT22;5316;49.538;8.352;2023-05-07T15:55:34;19.40;99.90
10536;DHT22;5316;49.538;8.352;2023-05-07T15:58:00;19.30;99.90
10536;DHT22;5316;49.538;8.352;2023-05-07T16:00:28;19.10;99.90
10536;DHT22;5316;49.538;8.352;2023-05-07T16:02:55;19.00;99.90
10536;DHT22;5316;49.538;8.352;2023-05-07T16:05:23;18.80;99.90
10536;DHT22;5316;49.538;8.352;2023-05-07T16:07:50;18.70;99.90
10536;DHT22;5316;49.538;8.352;2023-05-07T16:10:17;18.70;99.90